sensor_id;sensor_type;location;lat;lon;timestamp;P1;durP1;ratioP1;P2;durP2;ratioP2
29516;SDS011;40993;50.594;8.664;2023-12-22T00:02:27;16.95;;;3.20;;
29516;SDS011;40993;50.594;8.664;2023-12-22T00:04:56;13.10;;;2.67;;
29516;SDS011;40993;50.594;8.664;2023-12-22T00:07:23;14.32;;;2.20;;
29516;SDS011;40993;50.594;8.664;2023-12-22T00:09:51;15.85;;;2.72;;
29516;SDS011;40993;50.594;8.664;2023-12-22T00:12:19;20.30;;;2.65;;
29516;SDS011;40993;50.594;8.664;2023-12-22T00:14:47;14.73;;;2.72;;
29516;SDS011;40993;50.594;8.664;2023-12-22T00:17:15;15.93;;;2.95;;
29516;SDS011;40993;50.594;8.664;2023-12-22T00:19:44;21.08;;;3.22;;
29516;SDS011;40993;50.594;8.664;2023-12-22T00:22:12;17.55;;;2.97;;
29516;SDS011;40993;50.594;8.664;2023-12-22T00:24:40;17.67;;;2.75;;
29516;SDS011;40993;50.594;8.664;2023-12-22T00:27:07;19.55;;;3.00;;
29516;SDS011;40993;50.594;8.664;2023-12-22T00:29:35;19.08;;;3.53;;
29516;SDS011;40993;50.594;8.664;2023-12-22T00:32:03;18.65;;;2.60;;
29516;SDS011;40993;50.594;8.664;2023-12-22T00:34:33;27.65;;;4.07;;
29516;SDS011;40993;50.594;8.664;2023-12-22T00:37:02;19.38;;;3.03;;
29516;SDS011;40993;50.594;8.664;2023-12-22T00:39:30;27.48;;;3.67;;
29516;SDS011;40993;50.594;8.664;2023-12-22T00:41:58;23.33;;;4.15;;
29516;SDS011;40993;50.594;8.664;2023-12-22T00:44:27;27.63;;;4.10;;
29516;SDS011;40993;50.594;8.664;2023-12-22T00:46:55;25.13;;;3.90;;
29516;SDS011;40993;50.594;8.664;2023-12-22T00:49:23;25.08;;;4.57;;
29516;SDS011;40993;50.594;8.664;2023-12-22T00:51:51;29.05;;;4.65;;
29516;SDS011;40993;50.594;8.664;2023-12-22T00:54:20;27.65;;;4.35;;
29516;SDS011;40993;50.594;8.664;2023-12-22T00:56:48;26.38;;;4.18;;
29516;SDS011;40993;50.594;8.664;2023-12-22T00:59:15;21.23;;;3.65;;
29516;SDS011;40993;50.594;8.664;2023-12-22T01:01:43;29.45;;;3.75;;
29516;SDS011;40993;50.594;8.664;2023-12-22T01:04:11;18.73;;;3.28;;
29516;SDS011;40993;50.594;8.664;2023-12-22T01:06:39;14.45;;;3.00;;
29516;SDS011;40993;50.594;8.664;2023-12-22T01:09:08;17.52;;;3.22;;
29516;SDS011;40993;50.594;8.664;2023-12-22T01:11:37;23.73;;;3.17;;
29516;SDS011;40993;50.594;8.664;2023-12-22T01:14:05;19.40;;;3.65;;
29516;SDS011;40993;50.594;8.664;2023-12-22T01:16:33;21.23;;;3.17;;
29516;SDS011;40993;50.594;8.664;2023-12-22T01:19:01;23.30;;;3.42;;
29516;SDS011;40993;50.594;8.664;2023-12-22T01:21:29;19.63;;;3.25;;
29516;SDS011;40993;50.594;8.664;2023-12-22T01:23:56;16.42;;;3.15;;
29516;SDS011;40993;50.594;8.664;2023-12-22T01:26:25;24.90;;;3.53;;
29516;SDS011;40993;50.594;8.664;2023-12-22T01:28:54;21.27;;;3.17;;
29516;SDS011;40993;50.594;8.664;2023-12-22T01:31:22;22.77;;;3.95;;
29516;SDS011;40993;50.594;8.664;2023-12-22T01:33:50;21.27;;;3.40;;
29516;SDS011;40993;50.594;8.664;2023-12-22T01:36:17;23.08;;;3.90;;
29516;SDS011;40993;50.594;8.664;2023-12-22T01:38:45;24.27;;;3.63;;
29516;SDS011;40993;50.594;8.664;2023-12-22T01:41:13;26.85;;;3.67;;
29516;SDS011;40993;50.594;8.664;2023-12-22T01:43:41;21.25;;;3.35;;
29516;SDS011;40993;50.594;8.664;2023-12-22T01:46:10;32.60;;;4.68;;
29516;SDS011;40993;50.594;8.664;2023-12-22T01:48:38;23.60;;;3.65;;
29516;SDS011;40993;50.594;8.664;2023-12-22T01:51:06;23.67;;;3.70;;
29516;SDS011;40993;50.594;8.664;2023-12-22T01:53:34;23.35;;;3.83;;
29516;SDS011;40993;50.594;8.664;2023-12-22T01:56:05;25.95;;;3.88;;
29516;SDS011;40993;50.594;8.664;2023-12-22T01:58:34;25.10;;;3.85;;
29516;SDS011;40993;50.594;8.664;2023-12-22T02:01:14;22.83;;;3.92;;
29516;SDS011;40993;50.594;8.664;2023-12-22T02:03:42;20.30;;;3.63;;
29516;SDS011;40993;50.594;8.664;2023-12-22T02:06:10;19.85;;;3.53;;
29516;SDS011;40993;50.594;8.664;2023-12-22T02:08:38;31.60;;;4.22;;
29516;SDS011;40993;50.594;8.664;2023-12-22T02:11:06;28.30;;;4.45;;
29516;SDS011;40993;50.594;8.664;2023-12-22T02:13:34;23.95;;;3.53;;
29516;SDS011;40993;50.594;8.664;2023-12-22T02:16:03;23.92;;;3.63;;
29516;SDS011;40993;50.594;8.664;2023-12-22T02:18:34;27.60;;;4.15;;
29516;SDS011;40993;50.594;8.664;2023-12-22T02:21:02;24.40;;;4.82;;
29516;SDS011;40993;50.594;8.664;2023-12-22T02:23:32;22.38;;;3.35;;
29516;SDS011;40993;50.594;8.664;2023-12-22T02:26:03;18.38;;;3.75;;
29516;SDS011;40993;50.594;8.664;2023-12-22T02:28:34;29.98;;;3.85;;
29516;SDS011;40993;50.594;8.664;2023-12-22T02:31:04;24.08;;;3.78;;
29516;SDS011;40993;50.594;8.664;2023-12-22T02:33:35;17.08;;;3.08;;
29516;SDS011;40993;50.594;8.664;2023-12-22T02:36:03;24.88;;;3.50;;
29516;SDS011;40993;50.594;8.664;2023-12-22T02:38:35;21.98;;;3.20;;
29516;SDS011;40993;50.594;8.664;2023-12-22T02:41:03;24.23;;;3.72;;
29516;SDS011;40993;50.594;8.664;2023-12-22T02:43:32;21.70;;;3.17;;
29516;SDS011;40993;50.594;8.664;2023-12-22T02:46:00;22.77;;;4.07;;
29516;SDS011;40993;50.594;8.664;2023-12-22T02:48:27;26.13;;;3.25;;
29516;SDS011;40993;50.594;8.664;2023-12-22T02:50:55;22.30;;;3.20;;
29516;SDS011;40993;50.594;8.664;2023-12-22T02:53:23;22.92;;;3.67;;
29516;SDS011;40993;50.594;8.664;2023-12-22T02:55:53;17.27;;;2.83;;
29516;SDS011;40993;50.594;8.664;2023-12-22T02:58:21;23.90;;;3.67;;
29516;SDS011;40993;50.594;8.664;2023-12-22T03:00:49;16.02;;;2.97;;
29516;SDS011;40993;50.594;8.664;2023-12-22T03:03:16;21.38;;;3.35;;
29516;SDS011;40993;50.594;8.664;2023-12-22T03:05:44;17.52;;;2.67;;
29516;SDS011;40993;50.594;8.664;2023-12-22T03:08:12;19.95;;;2.88;;
29516;SDS011;40993;50.594;8.664;2023-12-22T03:10:40;17.90;;;2.60;;
29516;SDS011;40993;50.594;8.664;2023-12-22T03:13:09;19.42;;;2.97;;
29516;SDS011;40993;50.594;8.664;2023-12-22T03:15:37;26.92;;;2.78;;
29516;SDS011;40993;50.594;8.664;2023-12-22T03:18:04;17.00;;;3.10;;
29516;SDS011;40993;50.594;8.664;2023-12-22T03:20:32;18.15;;;2.50;;
29516;SDS011;40993;50.594;8.664;2023-12-22T03:23:00;15.32;;;2.67;;
29516;SDS011;40993;50.594;8.664;2023-12-22T03:25:28;26.95;;;3.85;;
29516;SDS011;40993;50.594;8.664;2023-12-22T03:27:55;18.33;;;2.70;;
29516;SDS011;40993;50.594;8.664;2023-12-22T03:30:24;22.83;;;2.83;;
29516;SDS011;40993;50.594;8.664;2023-12-22T03:32:52;17.23;;;3.55;;
29516;SDS011;40993;50.594;8.664;2023-12-22T03:35:20;14.68;;;3.10;;
29516;SDS011;40993;50.594;8.664;2023-12-22T03:37:48;18.13;;;3.25;;
29516;SDS011;40993;50.594;8.664;2023-12-22T03:40:16;20.27;;;3.45;;
29516;SDS011;40993;50.594;8.664;2023-12-22T03:42:44;19.90;;;2.85;;
29516;SDS011;40993;50.594;8.664;2023-12-22T03:45:12;16.50;;;2.63;;
29516;SDS011;40993;50.594;8.664;2023-12-22T03:47:41;13.52;;;2.60;;
29516;SDS011;40993;50.594;8.664;2023-12-22T03:50:08;24.02;;;3.47;;
29516;SDS011;40993;50.594;8.664;2023-12-22T03:52:36;19.45;;;2.95;;
29516;SDS011;40993;50.594;8.664;2023-12-22T03:55:04;17.60;;;2.88;;
29516;SDS011;40993;50.594;8.664;2023-12-22T03:57:32;17.48;;;2.80;;
29516;SDS011;40993;50.594;8.664;2023-12-22T03:59:59;13.73;;;2.67;;
29516;SDS011;40993;50.594;8.664;2023-12-22T04:02:29;21.13;;;2.72;;
29516;SDS011;40993;50.594;8.664;2023-12-22T04:04:58;11.48;;;2.53;;
29516;SDS011;40993;50.594;8.664;2023-12-22T04:07:26;15.35;;;2.33;;
29516;SDS011;40993;50.594;8.664;2023-12-22T04:09:54;12.73;;;1.80;;
29516;SDS011;40993;50.594;8.664;2023-12-22T04:12:21;11.10;;;2.03;;
29516;SDS011;40993;50.594;8.664;2023-12-22T04:14:49;10.93;;;1.58;;
29516;SDS011;40993;50.594;8.664;2023-12-22T04:17:17;7.93;;;1.95;;
29516;SDS011;40993;50.594;8.664;2023-12-22T04:19:45;8.68;;;1.85;;
29516;SDS011;40993;50.594;8.664;2023-12-22T04:22:14;8.45;;;1.70;;
29516;SDS011;40993;50.594;8.664;2023-12-22T04:24:42;8.68;;;1.48;;
29516;SDS011;40993;50.594;8.664;2023-12-22T04:27:10;15.18;;;1.60;;
29516;SDS011;40993;50.594;8.664;2023-12-22T04:29:37;10.25;;;1.80;;
29516;SDS011;40993;50.594;8.664;2023-12-22T04:32:05;10.20;;;1.83;;
29516;SDS011;40993;50.594;8.664;2023-12-22T04:34:33;10.38;;;1.63;;
29516;SDS011;40993;50.594;8.664;2023-12-22T04:37:01;11.75;;;1.73;;
29516;SDS011;40993;50.594;8.664;2023-12-22T04:39:30;10.52;;;1.33;;
29516;SDS011;40993;50.594;8.664;2023-12-22T04:41:57;7.95;;;1.70;;
29516;SDS011;40993;50.594;8.664;2023-12-22T04:44:25;11.60;;;1.90;;
29516;SDS011;40993;50.594;8.664;2023-12-22T04:46:53;12.18;;;1.60;;
29516;SDS011;40993;50.594;8.664;2023-12-22T04:49:21;8.27;;;1.73;;
29516;SDS011;40993;50.594;8.664;2023-12-22T04:51:49;9.77;;;1.92;;
29516;SDS011;40993;50.594;8.664;2023-12-22T04:54:16;9.95;;;1.48;;
29516;SDS011;40993;50.594;8.664;2023-12-22T04:56:45;13.27;;;2.00;;
29516;SDS011;40993;50.594;8.664;2023-12-22T04:59:13;13.32;;;2.13;;
29516;SDS011;40993;50.594;8.664;2023-12-22T05:01:41;15.82;;;1.83;;
29516;SDS011;40993;50.594;8.664;2023-12-22T05:04:09;17.38;;;4.47;;
29516;SDS011;40993;50.594;8.664;2023-12-22T05:06:37;8.02;;;2.10;;
29516;SDS011;40993;50.594;8.664;2023-12-22T05:09:05;9.50;;;1.90;;
29516;SDS011;40993;50.594;8.664;2023-12-22T05:11:33;7.40;;;1.90;;
29516;SDS011;40993;50.594;8.664;2023-12-22T05:14:03;7.38;;;1.50;;
29516;SDS011;40993;50.594;8.664;2023-12-22T05:16:31;6.03;;;1.35;;
29516;SDS011;40993;50.594;8.664;2023-12-22T05:18:59;8.80;;;1.42;;
29516;SDS011;40993;50.594;8.664;2023-12-22T05:21:27;7.18;;;1.52;;
29516;SDS011;40993;50.594;8.664;2023-12-22T05:23:55;5.97;;;1.33;;
29516;SDS011;40993;50.594;8.664;2023-12-22T05:26:22;10.07;;;1.50;;
29516;SDS011;40993;50.594;8.664;2023-12-22T05:28:51;9.63;;;2.75;;
29516;SDS011;40993;50.594;8.664;2023-12-22T05:31:20;6.47;;;1.50;;
29516;SDS011;40993;50.594;8.664;2023-12-22T05:33:48;4.53;;;1.15;;
29516;SDS011;40993;50.594;8.664;2023-12-22T05:36:16;6.28;;;1.50;;
29516;SDS011;40993;50.594;8.664;2023-12-22T05:38:44;10.43;;;1.50;;
29516;SDS011;40993;50.594;8.664;2023-12-22T05:41:12;7.60;;;1.70;;
29516;SDS011;40993;50.594;8.664;2023-12-22T05:43:40;7.72;;;1.17;;
29516;SDS011;40993;50.594;8.664;2023-12-22T05:46:07;5.20;;;1.15;;
29516;SDS011;40993;50.594;8.664;2023-12-22T05:48:37;7.53;;;1.90;;
29516;SDS011;40993;50.594;8.664;2023-12-22T05:51:05;9.63;;;1.20;;
29516;SDS011;40993;50.594;8.664;2023-12-22T05:53:39;10.20;;;1.42;;
29516;SDS011;40993;50.594;8.664;2023-12-22T05:56:16;5.20;;;1.30;;
29516;SDS011;40993;50.594;8.664;2023-12-22T05:58:45;5.72;;;1.33;;
29516;SDS011;40993;50.594;8.664;2023-12-22T06:01:15;10.75;;;1.83;;
29516;SDS011;40993;50.594;8.664;2023-12-22T06:03:46;7.03;;;1.63;;
29516;SDS011;40993;50.594;8.664;2023-12-22T06:06:14;9.13;;;1.38;;
29516;SDS011;40993;50.594;8.664;2023-12-22T06:08:42;16.20;;;1.83;;
29516;SDS011;40993;50.594;8.664;2023-12-22T06:11:10;10.73;;;2.00;;
29516;SDS011;40993;50.594;8.664;2023-12-22T06:13:39;9.27;;;1.80;;
29516;SDS011;40993;50.594;8.664;2023-12-22T06:16:06;15.20;;;2.63;;
29516;SDS011;40993;50.594;8.664;2023-12-22T06:18:39;11.82;;;1.83;;
29516;SDS011;40993;50.594;8.664;2023-12-22T06:21:09;11.55;;;2.25;;
29516;SDS011;40993;50.594;8.664;2023-12-22T06:23:37;14.20;;;1.65;;
29516;SDS011;40993;50.594;8.664;2023-12-22T06:26:07;9.70;;;1.67;;
29516;SDS011;40993;50.594;8.664;2023-12-22T06:28:35;14.70;;;2.38;;
29516;SDS011;40993;50.594;8.664;2023-12-22T06:31:04;16.38;;;5.00;;
29516;SDS011;40993;50.594;8.664;2023-12-22T06:33:32;31.50;;;9.07;;
29516;SDS011;40993;50.594;8.664;2023-12-22T06:36:00;9.43;;;3.45;;
29516;SDS011;40993;50.594;8.664;2023-12-22T06:38:30;7.38;;;1.70;;
29516;SDS011;40993;50.594;8.664;2023-12-22T06:40:58;12.20;;;1.40;;
29516;SDS011;40993;50.594;8.664;2023-12-22T06:43:26;7.20;;;1.38;;
29516;SDS011;40993;50.594;8.664;2023-12-22T06:45:54;5.75;;;1.30;;
29516;SDS011;40993;50.594;8.664;2023-12-22T06:48:21;6.90;;;0.93;;
29516;SDS011;40993;50.594;8.664;2023-12-22T06:50:49;8.73;;;1.35;;
29516;SDS011;40993;50.594;8.664;2023-12-22T06:53:17;6.80;;;1.30;;
29516;SDS011;40993;50.594;8.664;2023-12-22T06:55:53;6.30;;;1.52;;
29516;SDS011;40993;50.594;8.664;2023-12-22T06:58:20;9.10;;;1.27;;
29516;SDS011;40993;50.594;8.664;2023-12-22T07:00:51;9.25;;;1.55;;
29516;SDS011;40993;50.594;8.664;2023-12-22T07:03:19;6.30;;;1.52;;
29516;SDS011;40993;50.594;8.664;2023-12-22T07:05:47;16.55;;;2.92;;
29516;SDS011;40993;50.594;8.664;2023-12-22T07:08:15;10.02;;;1.88;;
29516;SDS011;40993;50.594;8.664;2023-12-22T07:10:43;10.30;;;2.10;;
29516;SDS011;40993;50.594;8.664;2023-12-22T07:13:13;6.03;;;1.55;;
29516;SDS011;40993;50.594;8.664;2023-12-22T07:15:42;7.18;;;1.35;;
29516;SDS011;40993;50.594;8.664;2023-12-22T07:18:10;6.32;;;1.35;;
29516;SDS011;40993;50.594;8.664;2023-12-22T07:20:38;11.93;;;1.75;;
29516;SDS011;40993;50.594;8.664;2023-12-22T07:23:05;14.57;;;1.90;;
29516;SDS011;40993;50.594;8.664;2023-12-22T07:25:35;7.40;;;1.65;;
29516;SDS011;40993;50.594;8.664;2023-12-22T07:28:05;6.55;;;1.38;;
29516;SDS011;40993;50.594;8.664;2023-12-22T07:30:34;11.80;;;2.05;;
29516;SDS011;40993;50.594;8.664;2023-12-22T07:33:02;7.30;;;1.40;;
29516;SDS011;40993;50.594;8.664;2023-12-22T07:35:31;14.57;;;2.15;;
29516;SDS011;40993;50.594;8.664;2023-12-22T07:37:59;13.73;;;1.90;;
29516;SDS011;40993;50.594;8.664;2023-12-22T07:40:29;11.65;;;2.28;;
29516;SDS011;40993;50.594;8.664;2023-12-22T07:42:57;10.88;;;1.98;;
29516;SDS011;40993;50.594;8.664;2023-12-22T07:45:25;10.75;;;2.40;;
29516;SDS011;40993;50.594;8.664;2023-12-22T07:47:55;8.70;;;1.67;;
29516;SDS011;40993;50.594;8.664;2023-12-22T07:50:25;12.80;;;1.95;;
29516;SDS011;40993;50.594;8.664;2023-12-22T07:52:54;13.63;;;1.70;;
29516;SDS011;40993;50.594;8.664;2023-12-22T07:55:21;10.90;;;2.17;;
29516;SDS011;40993;50.594;8.664;2023-12-22T07:57:49;12.55;;;1.70;;
29516;SDS011;40993;50.594;8.664;2023-12-22T08:00:17;12.25;;;2.25;;
29516;SDS011;40993;50.594;8.664;2023-12-22T08:02:45;12.77;;;1.90;;
29516;SDS011;40993;50.594;8.664;2023-12-22T08:05:15;12.63;;;2.17;;
29516;SDS011;40993;50.594;8.664;2023-12-22T08:07:42;13.85;;;2.58;;
29516;SDS011;40993;50.594;8.664;2023-12-22T08:10:10;12.20;;;1.80;;
29516;SDS011;40993;50.594;8.664;2023-12-22T08:12:38;11.48;;;2.05;;
29516;SDS011;40993;50.594;8.664;2023-12-22T08:15:06;11.43;;;1.98;;
29516;SDS011;40993;50.594;8.664;2023-12-22T08:17:45;17.13;;;1.95;;
29516;SDS011;40993;50.594;8.664;2023-12-22T08:20:17;12.68;;;2.10;;
29516;SDS011;40993;50.594;8.664;2023-12-22T08:22:52;8.43;;;1.60;;
29516;SDS011;40993;50.594;8.664;2023-12-22T08:25:21;8.65;;;1.20;;
29516;SDS011;40993;50.594;8.664;2023-12-22T08:27:49;9.20;;;1.58;;
29516;SDS011;40993;50.594;8.664;2023-12-22T08:30:18;9.93;;;1.30;;
29516;SDS011;40993;50.594;8.664;2023-12-22T08:32:45;6.90;;;1.25;;
29516;SDS011;40993;50.594;8.664;2023-12-22T08:35:13;9.52;;;1.27;;
29516;SDS011;40993;50.594;8.664;2023-12-22T08:37:44;7.32;;;1.35;;
29516;SDS011;40993;50.594;8.664;2023-12-22T08:40:12;9.73;;;1.73;;
29516;SDS011;40993;50.594;8.664;2023-12-22T08:42:40;12.82;;;1.80;;
29516;SDS011;40993;50.594;8.664;2023-12-22T08:45:08;12.13;;;1.75;;
29516;SDS011;40993;50.594;8.664;2023-12-22T08:47:36;12.80;;;1.65;;
29516;SDS011;40993;50.594;8.664;2023-12-22T08:50:04;8.73;;;1.67;;
29516;SDS011;40993;50.594;8.664;2023-12-22T08:52:34;14.88;;;2.10;;
29516;SDS011;40993;50.594;8.664;2023-12-22T08:55:04;14.07;;;1.60;;
29516;SDS011;40993;50.594;8.664;2023-12-22T08:57:32;11.13;;;1.55;;
29516;SDS011;40993;50.594;8.664;2023-12-22T09:00:00;13.32;;;2.00;;
29516;SDS011;40993;50.594;8.664;2023-12-22T09:02:27;11.93;;;1.63;;
29516;SDS011;40993;50.594;8.664;2023-12-22T09:04:55;11.82;;;1.80;;
29516;SDS011;40993;50.594;8.664;2023-12-22T09:07:23;17.00;;;2.55;;
29516;SDS011;40993;50.594;8.664;2023-12-22T09:09:51;10.68;;;2.25;;
29516;SDS011;40993;50.594;8.664;2023-12-22T09:12:20;15.73;;;2.03;;
29516;SDS011;40993;50.594;8.664;2023-12-22T09:14:49;10.27;;;2.03;;
29516;SDS011;40993;50.594;8.664;2023-12-22T09:17:17;14.25;;;2.78;;
29516;SDS011;40993;50.594;8.664;2023-12-22T09:19:45;13.25;;;2.50;;
29516;SDS011;40993;50.594;8.664;2023-12-22T09:22:13;11.95;;;1.92;;
29516;SDS011;40993;50.594;8.664;2023-12-22T09:24:41;24.67;;;2.90;;
29516;SDS011;40993;50.594;8.664;2023-12-22T09:27:08;15.07;;;2.83;;
29516;SDS011;40993;50.594;8.664;2023-12-22T09:29:38;15.15;;;2.05;;
29516;SDS011;40993;50.594;8.664;2023-12-22T09:32:06;18.95;;;2.60;;
29516;SDS011;40993;50.594;8.664;2023-12-22T09:34:34;20.27;;;2.63;;
29516;SDS011;40993;50.594;8.664;2023-12-22T09:37:02;18.80;;;2.60;;
29516;SDS011;40993;50.594;8.664;2023-12-22T09:39:30;17.60;;;2.40;;
29516;SDS011;40993;50.594;8.664;2023-12-22T09:41:58;16.55;;;3.15;;
29516;SDS011;40993;50.594;8.664;2023-12-22T09:44:25;19.58;;;2.80;;
29516;SDS011;40993;50.594;8.664;2023-12-22T09:47:01;24.17;;;3.28;;
29516;SDS011;40993;50.594;8.664;2023-12-22T09:49:32;21.55;;;3.28;;
29516;SDS011;40993;50.594;8.664;2023-12-22T09:52:01;19.42;;;2.47;;
29516;SDS011;40993;50.594;8.664;2023-12-22T09:54:30;21.20;;;3.20;;
29516;SDS011;40993;50.594;8.664;2023-12-22T09:56:59;17.13;;;3.15;;
29516;SDS011;40993;50.594;8.664;2023-12-22T09:59:44;17.77;;;2.80;;
29516;SDS011;40993;50.594;8.664;2023-12-22T10:02:15;19.13;;;3.25;;
29516;SDS011;40993;50.594;8.664;2023-12-22T10:04:42;15.95;;;2.63;;
29516;SDS011;40993;50.594;8.664;2023-12-22T10:07:10;13.82;;;2.65;;
29516;SDS011;40993;50.594;8.664;2023-12-22T10:09:40;17.70;;;2.45;;
29516;SDS011;40993;50.594;8.664;2023-12-22T10:12:08;20.85;;;3.50;;
29516;SDS011;40993;50.594;8.664;2023-12-22T10:14:37;20.73;;;2.78;;
29516;SDS011;40993;50.594;8.664;2023-12-22T10:17:06;27.73;;;3.30;;
29516;SDS011;40993;50.594;8.664;2023-12-22T10:19:35;21.20;;;3.67;;
29516;SDS011;40993;50.594;8.664;2023-12-22T10:22:03;23.00;;;3.08;;
29516;SDS011;40993;50.594;8.664;2023-12-22T10:24:37;23.08;;;3.58;;
29516;SDS011;40993;50.594;8.664;2023-12-22T10:27:06;22.17;;;3.45;;
29516;SDS011;40993;50.594;8.664;2023-12-22T10:29:34;29.30;;;3.25;;
29516;SDS011;40993;50.594;8.664;2023-12-22T10:32:02;25.58;;;3.83;;
29516;SDS011;40993;50.594;8.664;2023-12-22T10:34:34;21.65;;;3.53;;
29516;SDS011;40993;50.594;8.664;2023-12-22T10:37:03;22.38;;;3.90;;
29516;SDS011;40993;50.594;8.664;2023-12-22T10:39:31;20.77;;;2.90;;
29516;SDS011;40993;50.594;8.664;2023-12-22T10:42:00;20.13;;;3.20;;
29516;SDS011;40993;50.594;8.664;2023-12-22T10:44:28;25.98;;;3.72;;
29516;SDS011;40993;50.594;8.664;2023-12-22T10:46:56;32.58;;;3.80;;
29516;SDS011;40993;50.594;8.664;2023-12-22T10:49:25;23.48;;;4.07;;
29516;SDS011;40993;50.594;8.664;2023-12-22T10:51:57;14.88;;;2.92;;
29516;SDS011;40993;50.594;8.664;2023-12-22T10:54:24;18.23;;;3.38;;
29516;SDS011;40993;50.594;8.664;2023-12-22T10:56:54;22.10;;;3.88;;
29516;SDS011;40993;50.594;8.664;2023-12-22T10:59:27;18.10;;;3.20;;
29516;SDS011;40993;50.594;8.664;2023-12-22T11:01:57;13.38;;;2.75;;
29516;SDS011;40993;50.594;8.664;2023-12-22T11:04:29;23.30;;;2.90;;
29516;SDS011;40993;50.594;8.664;2023-12-22T11:06:59;19.77;;;3.35;;
29516;SDS011;40993;50.594;8.664;2023-12-22T11:09:31;12.95;;;2.88;;
29516;SDS011;40993;50.594;8.664;2023-12-22T11:11:59;14.00;;;2.95;;
29516;SDS011;40993;50.594;8.664;2023-12-22T11:14:29;17.60;;;2.70;;
29516;SDS011;40993;50.594;8.664;2023-12-22T11:16:59;14.27;;;2.38;;
29516;SDS011;40993;50.594;8.664;2023-12-22T11:19:28;19.85;;;3.28;;
29516;SDS011;40993;50.594;8.664;2023-12-22T11:21:59;20.35;;;3.05;;
29516;SDS011;40993;50.594;8.664;2023-12-22T11:24:29;13.50;;;3.00;;
29516;SDS011;40993;50.594;8.664;2023-12-22T11:26:58;15.20;;;2.92;;
29516;SDS011;40993;50.594;8.664;2023-12-22T11:29:27;21.25;;;3.35;;
29516;SDS011;40993;50.594;8.664;2023-12-22T11:31:55;21.85;;;2.92;;
29516;SDS011;40993;50.594;8.664;2023-12-22T11:34:25;11.10;;;2.28;;
29516;SDS011;40993;50.594;8.664;2023-12-22T11:36:56;18.15;;;2.65;;
29516;SDS011;40993;50.594;8.664;2023-12-22T11:39:25;10.18;;;2.30;;
29516;SDS011;40993;50.594;8.664;2023-12-22T11:41:53;12.38;;;2.53;;
29516;SDS011;40993;50.594;8.664;2023-12-22T11:44:21;22.33;;;2.40;;
29516;SDS011;40993;50.594;8.664;2023-12-22T11:46:50;14.48;;;2.35;;
29516;SDS011;40993;50.594;8.664;2023-12-22T11:49:33;10.77;;;2.28;;
29516;SDS011;40993;50.594;8.664;2023-12-22T11:52:09;8.85;;;2.33;;
29516;SDS011;40993;50.594;8.664;2023-12-22T11:54:45;9.88;;;2.10;;
29516;SDS011;40993;50.594;8.664;2023-12-22T11:59:57;10.55;;;2.28;;
29516;SDS011;40993;50.594;8.664;2023-12-22T12:02:25;11.98;;;2.50;;
29516;SDS011;40993;50.594;8.664;2023-12-22T12:04:53;11.27;;;2.40;;
29516;SDS011;40993;50.594;8.664;2023-12-22T12:07:38;17.33;;;2.92;;
29516;SDS011;40993;50.594;8.664;2023-12-22T12:10:08;14.68;;;2.70;;
29516;SDS011;40993;50.594;8.664;2023-12-22T12:12:36;11.65;;;3.08;;
29516;SDS011;40993;50.594;8.664;2023-12-22T12:15:08;13.00;;;2.30;;
29516;SDS011;40993;50.594;8.664;2023-12-22T12:17:43;14.55;;;2.88;;
29516;SDS011;40993;50.594;8.664;2023-12-22T12:20:11;12.27;;;2.60;;
29516;SDS011;40993;50.594;8.664;2023-12-22T12:22:39;17.65;;;2.63;;
29516;SDS011;40993;50.594;8.664;2023-12-22T12:25:09;14.23;;;2.40;;
29516;SDS011;40993;50.594;8.664;2023-12-22T12:30:28;14.93;;;3.08;;
29516;SDS011;40993;50.594;8.664;2023-12-22T12:32:58;17.08;;;2.60;;
29516;SDS011;40993;50.594;8.664;2023-12-22T12:35:29;12.90;;;2.20;;
29516;SDS011;40993;50.594;8.664;2023-12-22T12:37:57;19.45;;;2.33;;
29516;SDS011;40993;50.594;8.664;2023-12-22T12:40:26;14.45;;;2.47;;
29516;SDS011;40993;50.594;8.664;2023-12-22T12:42:55;16.17;;;2.85;;
29516;SDS011;40993;50.594;8.664;2023-12-22T12:45:24;13.05;;;2.72;;
29516;SDS011;40993;50.594;8.664;2023-12-22T12:47:55;21.38;;;3.17;;
29516;SDS011;40993;50.594;8.664;2023-12-22T12:50:23;13.00;;;2.40;;
29516;SDS011;40993;50.594;8.664;2023-12-22T12:52:51;19.73;;;2.70;;
29516;SDS011;40993;50.594;8.664;2023-12-22T12:55:20;19.63;;;2.67;;
29516;SDS011;40993;50.594;8.664;2023-12-22T12:57:49;16.35;;;2.80;;
29516;SDS011;40993;50.594;8.664;2023-12-22T13:00:23;20.75;;;3.40;;
29516;SDS011;40993;50.594;8.664;2023-12-22T13:05:21;23.17;;;3.90;;
29516;SDS011;40993;50.594;8.664;2023-12-22T13:07:50;14.90;;;2.63;;
29516;SDS011;40993;50.594;8.664;2023-12-22T13:10:21;21.95;;;3.22;;
29516;SDS011;40993;50.594;8.664;2023-12-22T13:12:51;20.65;;;2.75;;
29516;SDS011;40993;50.594;8.664;2023-12-22T13:15:20;19.70;;;3.00;;
29516;SDS011;40993;50.594;8.664;2023-12-22T13:17:48;20.55;;;3.13;;
29516;SDS011;40993;50.594;8.664;2023-12-22T13:20:17;20.15;;;3.00;;
29516;SDS011;40993;50.594;8.664;2023-12-22T13:22:45;15.52;;;3.28;;
29516;SDS011;40993;50.594;8.664;2023-12-22T13:25:13;15.98;;;2.75;;
29516;SDS011;40993;50.594;8.664;2023-12-22T13:27:44;18.73;;;3.45;;
29516;SDS011;40993;50.594;8.664;2023-12-22T13:30:15;18.08;;;2.92;;
29516;SDS011;40993;50.594;8.664;2023-12-22T13:32:43;20.35;;;2.90;;
29516;SDS011;40993;50.594;8.664;2023-12-22T13:35:11;18.98;;;2.65;;
29516;SDS011;40993;50.594;8.664;2023-12-22T13:37:41;17.90;;;3.20;;
29516;SDS011;40993;50.594;8.664;2023-12-22T13:40:10;22.50;;;2.95;;
29516;SDS011;40993;50.594;8.664;2023-12-22T13:42:39;23.90;;;3.38;;
29516;SDS011;40993;50.594;8.664;2023-12-22T13:45:09;22.75;;;2.75;;
29516;SDS011;40993;50.594;8.664;2023-12-22T13:47:41;23.38;;;3.22;;
29516;SDS011;40993;50.594;8.664;2023-12-22T13:50:13;20.92;;;3.13;;
29516;SDS011;40993;50.594;8.664;2023-12-22T13:52:42;25.42;;;3.90;;
29516;SDS011;40993;50.594;8.664;2023-12-22T13:55:11;21.65;;;2.78;;
29516;SDS011;40993;50.594;8.664;2023-12-22T13:57:39;26.33;;;3.35;;
29516;SDS011;40993;50.594;8.664;2023-12-22T14:00:26;26.23;;;3.67;;
29516;SDS011;40993;50.594;8.664;2023-12-22T14:02:56;23.80;;;2.75;;
29516;SDS011;40993;50.594;8.664;2023-12-22T14:05:24;19.52;;;3.35;;
29516;SDS011;40993;50.594;8.664;2023-12-22T14:07:56;17.65;;;3.28;;
29516;SDS011;40993;50.594;8.664;2023-12-22T14:10:24;20.92;;;3.25;;
29516;SDS011;40993;50.594;8.664;2023-12-22T14:12:52;19.50;;;2.92;;
29516;SDS011;40993;50.594;8.664;2023-12-22T14:15:20;18.15;;;2.65;;
29516;SDS011;40993;50.594;8.664;2023-12-22T14:17:57;19.48;;;2.72;;
29516;SDS011;40993;50.594;8.664;2023-12-22T14:20:25;20.23;;;3.15;;
29516;SDS011;40993;50.594;8.664;2023-12-22T14:22:53;16.70;;;2.67;;
29516;SDS011;40993;50.594;8.664;2023-12-22T14:25:21;19.00;;;2.85;;
29516;SDS011;40993;50.594;8.664;2023-12-22T14:27:51;18.95;;;2.67;;
29516;SDS011;40993;50.594;8.664;2023-12-22T14:30:20;21.75;;;2.65;;
29516;SDS011;40993;50.594;8.664;2023-12-22T14:32:47;8.93;;;2.28;;
29516;SDS011;40993;50.594;8.664;2023-12-22T14:35:16;16.27;;;2.50;;
29516;SDS011;40993;50.594;8.664;2023-12-22T14:37:44;15.38;;;2.50;;
29516;SDS011;40993;50.594;8.664;2023-12-22T14:40:14;19.10;;;2.25;;
29516;SDS011;40993;50.594;8.664;2023-12-22T14:42:42;12.63;;;1.98;;
29516;SDS011;40993;50.594;8.664;2023-12-22T14:45:09;17.55;;;2.55;;
29516;SDS011;40993;50.594;8.664;2023-12-22T14:47:37;17.55;;;2.63;;
29516;SDS011;40993;50.594;8.664;2023-12-22T14:50:05;12.00;;;2.25;;
29516;SDS011;40993;50.594;8.664;2023-12-22T14:52:35;13.27;;;2.22;;
29516;SDS011;40993;50.594;8.664;2023-12-22T14:55:03;14.77;;;2.00;;